EFPO

Pori Airport

Pori, Finland
METAR EFPO 211250Z AUTO 22002KT CAVOK M07/M13 Q1029
Observed Flight Rules
Feb-21 @ 12:50 UTC (25 minutes ago) Visual Flight Rules
Wind Visibility Clouds
220° at 2 knots 10,000+ meters
  • Clear skies
Temperatures Readings
Current -7°C / 19°F
Dewpoint -13°C / 9°F
Humidity 63%
Altimeter 30.38" Hg
Pressure 1029 hPa
Elevation 17
METAR EFPO 211250Z AUTO 22002KT CAVOK M07/M13 Q1029
Observed Flight Rules
Feb-21 @ 12:50 UTC
(25 minutes ago)
VFR
Wind Visibility
220° at 2 knots 10,000+ meters
Clouds
  • Clear skies
Temperature Dewpoint
-7°C / 19°F -13°C / 9°F
Humidity Altimeter Pressure
63% 30.38" Hg 1029 hPa